Time;durP1;ratioP1;P1;durP2;ratioP2;P2;SDS_P1;SDS_P2;PMS_P1;PMS_P2;Temp;Humidity;BMP_temperature;BMP_pressure;BME280_temperature;BME280_humidity;BME280_pressure;Samples;Min_cycle;Max_cycle;Signal;HPM_P1;HPM_P2
2024/02/11 00:02:12;;;;;;;0.70;0.70;;;;;;;6.77;100.00;95758.25;4979947;28;20066;-95
2024/02/11 00:04:40;;;;;;;0.80;0.80;;;;;;;6.75;100.00;95757.38;4993097;28;20035;-93
2024/02/11 00:07:08;;;;;;;0.80;0.80;;;;;;;6.77;100.00;95760.03;4973852;28;20047;-94
2024/02/11 00:09:34;;;;;;;0.80;0.80;;;;;;;6.80;100.00;95766.19;4968084;28;20043;-93
2024/02/11 00:12:05;;;;;;;0.70;0.70;;;;;;;6.80;100.00;95766.19;4996039;28;20584;-93
2024/02/11 00:14:39;;;;;;;0.70;0.70;;;;;;;6.87;100.00;95775.88;4979308;28;20031;-94
2024/02/11 00:17:05;;;;;;;0.70;0.70;;;;;;;6.92;100.00;95774.09;4982378;28;20023;-95
2024/02/11 00:19:34;;;;;;;0.70;0.70;;;;;;;6.91;100.00;95777.63;4998663;28;20035;-94
2024/02/11 00:22:01;;;;;;;0.70;0.70;;;;;;;6.93;100.00;95773.19;4979720;28;20050;-95
2024/02/11 00:24:31;;;;;;;0.63;0.63;;;;;;;6.99;100.00;95776.69;4986444;28;20129;-93
2024/02/11 00:26:57;;;;;;;0.70;0.70;;;;;;;7.00;100.00;95786.44;4989786;28;20325;-95
2024/02/11 00:29:26;;;;;;;0.70;0.70;;;;;;;6.97;100.00;95781.16;4972741;28;20058;-94
2024/02/11 00:31:56;;;;;;;0.70;0.70;;;;;;;7.08;100.00;95781.97;4969095;28;20038;-94
2024/02/11 00:34:21;;;;;;;0.70;0.70;;;;;;;7.10;100.00;95786.38;4966597;28;20043;-95
2024/02/11 00:36:49;;;;;;;0.70;0.70;;;;;;;7.01;100.00;95783.78;4977291;28;20097;-93
2024/02/11 00:39:15;;;;;;;0.70;0.70;;;;;;;6.98;100.00;95778.47;4994857;28;20038;-94
2024/02/11 00:41:41;;;;;;;0.70;0.70;;;;;;;7.01;100.00;95788.19;4978365;28;20047;-94
2024/02/11 00:44:08;;;;;;;0.80;0.80;;;;;;;6.96;100.00;95780.28;4974520;28;20042;-94
2024/02/11 00:46:35;;;;;;;0.70;0.70;;;;;;;6.96;100.00;95790.88;4978552;28;20285;-93
2024/02/11 00:49:03;;;;;;;0.80;0.80;;;;;;;6.94;100.00;95784.69;4991418;28;20028;-94
2024/02/11 00:51:30;;;;;;;0.70;0.70;;;;;;;6.96;100.00;95782.91;4978643;28;20031;-93
2024/02/11 00:53:59;;;;;;;0.80;0.80;;;;;;;7.00;100.00;95786.44;4959124;28;20349;-93
2024/02/11 00:56:25;;;;;;;0.68;0.68;;;;;;;7.02;100.00;95798.78;4990215;28;20030;-92
2024/02/11 00:58:54;;;;;;;0.70;0.70;;;;;;;7.08;100.00;95800.53;4970002;28;20038;-92
2024/02/11 01:01:22;;;;;;;0.70;0.70;;;;;;;7.10;100.00;95804.94;4984972;28;20028;-93
2024/02/11 01:03:56;;;;;;;0.70;0.70;;;;;;;7.10;100.00;95793.47;4983306;28;20031;-92
2024/02/11 01:06:24;;;;;;;0.70;0.70;;;;;;;7.17;100.00;95801.34;4977580;28;20054;-94
2024/02/11 01:08:51;;;;;;;0.80;0.80;;;;;;;7.23;100.00;95800.44;4971566;28;20604;-91
2024/02/11 01:11:19;;;;;;;;;;;;;;;7.21;100.00;95812.84;4996935;28;20035;-92
2024/02/11 01:13:48;;;;;;;0.80;0.80;;;;;;;7.20;100.00;95804.00;4994816;28;19916;-93
2024/02/11 01:16:14;;;;;;;0.80;0.80;;;;;;;7.22;100.00;95809.28;4990980;28;20046;-94
2024/02/11 01:18:40;;;;;;;0.70;0.70;;;;;;;7.30;100.00;95809.28;4981463;28;20075;-94
2024/02/11 01:21:09;;;;;;;0.70;0.70;;;;;;;7.26;100.00;95811.03;4988240;28;20228;-94
2024/02/11 01:23:35;;;;;;;0.70;0.70;;;;;;;7.26;100.00;95819.00;5000564;28;20058;-92
2024/02/11 01:26:06;;;;;;;0.70;0.70;;;;;;;7.29;100.00;95815.47;4988466;28;20019;-92
2024/02/11 01:28:32;;;;;;;0.70;0.70;;;;;;;7.34;100.00;95818.97;4991239;28;20053;-94
2024/02/11 01:30:59;;;;;;;0.70;0.70;;;;;;;7.33;100.00;95826.06;4969338;28;20038;-93
2024/02/11 01:33:25;;;;;;;0.70;0.70;;;;;;;7.33;100.00;95822.50;4986936;28;20094;-94
2024/02/11 01:35:51;;;;;;;0.70;0.70;;;;;;;7.34;100.00;95826.94;4988735;28;20030;-94
2024/02/11 01:38:20;;;;;;;0.70;0.70;;;;;;;7.40;100.00;95833.06;4980387;28;20130;-93
2024/02/11 01:40:46;;;;;;;0.60;0.60;;;;;;;7.39;100.00;95833.09;4967551;28;20031;-94
2024/02/11 01:43:17;;;;;;;0.80;0.80;;;;;;;7.41;100.00;95836.59;4957717;28;20055;-93
2024/02/11 01:45:56;;;;;;;0.80;0.80;;;;;;;7.49;100.00;95839.22;4988316;28;20066;-93
2024/02/11 01:48:22;;;;;;;0.68;0.68;;;;;;;7.46;100.00;95837.47;4983761;28;20023;-93
2024/02/11 01:58:49;;;;;;;0.70;0.70;;;;;;;7.44;100.00;95824.22;5828678;23;20106;-94
2024/02/11 02:01:18;;;;;;;0.70;0.70;;;;;;;7.46;100.00;95826.84;4970796;28;20066;-93
2024/02/11 02:03:47;;;;;;;0.70;0.70;;;;;;;7.44;100.00;95821.56;4971999;28;20026;-93
2024/02/11 02:06:17;;;;;;;0.70;0.70;;;;;;;7.43;100.00;95824.22;4970086;28;20054;-94
2024/02/11 02:08:43;;;;;;;0.70;0.70;;;;;;;7.43;100.00;95827.75;4981942;28;20031;-92
2024/02/11 02:11:10;;;;;;;0.77;0.77;;;;;;;7.46;100.00;95840.09;4984283;28;20184;-93
2024/02/11 02:13:40;;;;;;;0.70;0.70;;;;;;;7.47;100.00;95836.56;4989219;28;20213;-92
2024/02/11 02:16:08;;;;;;;0.77;0.77;;;;;;;7.46;100.00;95835.69;4984686;28;20050;-93
2024/02/11 02:18:36;;;;;;;0.70;0.70;;;;;;;7.51;100.00;95829.47;4988566;28;20282;-92
2024/02/11 02:21:06;;;;;;;0.60;0.60;;;;;;;7.57;100.00;95835.66;4968376;28;20046;-95
2024/02/11 02:23:32;;;;;;;0.70;0.70;;;;;;;7.55;100.00;95828.56;4989853;28;20041;-94
2024/02/11 02:26:07;;;;;;;0.70;0.70;;;;;;;7.62;100.00;95832.97;4985908;28;20238;-92
2024/02/11 02:28:36;;;;;;;0.70;0.70;;;;;;;7.66;100.00;95840.00;4984005;28;20026;-94
2024/02/11 02:31:10;;;;;;;0.60;0.60;;;;;;;7.58;100.00;95841.84;4990001;28;20015;-92
2024/02/11 02:33:37;;;;;;;0.63;0.63;;;;;;;7.59;100.00;95836.50;4969456;28;20054;-95
2024/02/11 02:36:05;;;;;;;0.60;0.60;;;;;;;7.59;100.00;95844.47;4999684;28;20031;-92
2024/02/11 02:38:32;;;;;;;0.70;0.70;;;;;;;7.61;100.00;95834.72;4996768;28;20054;-93
2024/02/11 02:40:59;;;;;;;0.60;0.60;;;;;;;7.58;100.00;95825.91;4989503;28;20078;-93
2024/02/11 02:59:37;;;;;;;0.60;0.60;;;;;;;7.80;100.00;95850.53;5100184;23;20084;-92
2024/02/11 03:02:04;;;;;;;0.65;0.65;;;;;;;7.77;100.00;95846.13;5227727;23;20042;-93
2024/02/11 03:04:37;;;;;;;0.60;0.60;;;;;;;7.80;100.00;95846.09;4987794;28;20043;-91
2024/02/11 03:07:06;;;;;;;0.60;0.60;;;;;;;7.71;100.00;95840.84;4988856;28;20109;-93
2024/02/11 03:09:37;;;;;;;0.60;0.60;;;;;;;7.71;100.00;95851.47;4989985;28;20027;-92
2024/02/11 03:12:03;;;;;;;0.60;0.60;;;;;;;7.70;100.00;95844.38;4991210;28;20034;-92
2024/02/11 03:14:31;;;;;;;0.60;0.60;;;;;;;7.72;100.00;95853.25;4988264;28;20030;-92
2024/02/11 03:17:00;;;;;;;0.60;0.60;;;;;;;7.76;100.00;95856.75;4989594;28;20027;-92
2024/02/11 03:19:26;;;;;;;0.63;0.63;;;;;;;7.68;100.00;95862.09;4998930;28;20039;-93
2024/02/11 03:21:53;;;;;;;0.60;0.60;;;;;;;7.77;100.00;95867.38;4987550;28;20043;-96
2024/02/11 03:24:19;;;;;;;;;;;;;;;7.79;100.00;95883.28;4979322;28;20035;-92
2024/02/11 03:26:46;;;;;;;0.70;0.70;;;;;;;7.82;100.00;95880.59;4983418;28;19918;-93
2024/02/11 03:29:12;;;;;;;0.60;0.60;;;;;;;7.80;99.58;95899.19;4979176;28;20049;-93
2024/02/11 03:31:38;;;;;;;0.70;0.70;;;;;;;7.59;96.60;95908.13;4972081;28;20046;-93
2024/02/11 03:34:07;;;;;;;0.80;0.80;;;;;;;7.42;94.23;95913.50;4999529;28;20042;-92
2024/02/11 03:36:32;;;;;;;0.70;0.70;;;;;;;7.24;94.22;95926.84;4974076;28;20024;-93
2024/02/11 03:38:59;;;;;;;0.80;0.80;;;;;;;7.13;93.96;95929.50;4987367;28;20037;-91
2024/02/11 03:41:24;;;;;;;0.70;0.70;;;;;;;7.01;93.97;95937.50;4968471;28;20043;-93
2024/02/11 03:43:50;;;;;;;0.70;0.70;;;;;;;6.92;93.81;95937.53;4980986;28;20043;-92
2024/02/11 03:46:15;;;;;;;0.80;0.80;;;;;;;6.91;93.55;95939.31;4979397;28;20050;-93
2024/02/11 03:48:43;;;;;;;0.80;0.80;;;;;;;6.85;93.61;95954.31;4994749;28;20031;-91
2024/02/11 03:51:09;;;;;;;0.80;0.80;;;;;;;6.80;93.94;95953.44;4970852;28;20082;-91
2024/02/11 03:53:37;;;;;;;0.80;0.80;;;;;;;6.71;94.21;95970.25;5000889;28;20033;-91
2024/02/11 03:56:06;;;;;;;0.80;0.80;;;;;;;6.64;94.75;95964.03;4991690;28;20019;-92
2024/02/11 03:58:36;;;;;;;0.80;0.80;;;;;;;6.62;94.46;95975.53;4986541;28;20027;-93
2024/02/11 04:01:01;;;;;;;0.80;0.80;;;;;;;6.64;94.41;95989.66;4976412;28;20043;-92
2024/02/11 04:03:27;;;;;;;0.90;0.90;;;;;;;6.50;93.41;95986.13;4974721;28;20107;-93
2024/02/11 04:05:55;;;;;;;0.80;0.80;;;;;;;6.45;93.28;96001.13;4996497;28;20042;-93
2024/02/11 04:08:24;;;;;;;0.82;0.82;;;;;;;6.38;93.36;96003.78;4988983;28;20039;-92
2024/02/11 04:10:52;;;;;;;0.80;0.80;;;;;;;6.35;92.56;96009.06;4979437;28;20023;-92
2024/02/11 04:13:24;;;;;;;0.80;0.80;;;;;;;6.27;93.09;96009.91;4974943;28;20042;-93
2024/02/11 04:15:56;;;;;;;0.80;0.80;;;;;;;6.17;93.27;96020.47;4978535;28;20031;-93
2024/02/11 04:18:23;;;;;;;0.80;0.80;;;;;;;6.21;93.40;96021.38;4975862;28;20034;-93
2024/02/11 04:20:50;;;;;;;0.90;0.90;;;;;;;6.12;93.37;96026.66;4960961;28;20073;-93
2024/02/11 04:23:16;;;;;;;0.80;0.80;;;;;;;6.09;93.91;96031.97;4988431;28;20293;-93
2024/02/11 04:25:45;;;;;;;0.80;0.80;;;;;;;6.14;93.99;96030.19;4974634;28;20043;-93
2024/02/11 04:28:11;;;;;;;0.80;0.80;;;;;;;6.05;94.46;96032.81;4963161;28;20038;-92
2024/02/11 04:30:42;;;;;;;0.80;0.80;;;;;;;6.08;92.65;96030.16;4985708;28;20374;-93
2024/02/11 04:33:07;;;;;;;0.80;0.80;;;;;;;6.09;93.68;96029.31;4964203;28;20093;-94
2024/02/11 04:35:35;;;;;;;0.90;0.90;;;;;;;6.00;94.02;96034.56;4975723;28;20110;-93
2024/02/11 04:38:07;;;;;;;0.80;0.80;;;;;;;5.91;94.54;96043.31;4976214;28;20042;-93
2024/02/11 04:40:34;;;;;;;0.80;0.80;;;;;;;5.91;94.00;96038.94;4960191;28;20034;-93
2024/02/11 04:42:59;;;;;;;0.80;0.80;;;;;;;5.92;93.78;96042.47;4973613;28;20098;-93
2024/02/11 04:45:27;;;;;;;0.80;0.80;;;;;;;5.86;94.43;96045.06;4990894;28;20078;-93
2024/02/11 04:47:58;;;;;;;0.90;0.90;;;;;;;5.84;94.41;96052.97;4970615;28;20389;-94
2024/02/11 04:50:28;;;;;;;0.80;0.80;;;;;;;5.97;93.62;96053.06;4986699;28;20040;-92
2024/02/11 04:52:55;;;;;;;0.80;0.80;;;;;;;5.79;94.34;96060.00;4972274;28;20065;-93
2024/02/11 04:55:24;;;;;;;1.00;1.00;;;;;;;5.84;93.42;96066.19;4968910;28;20039;-93
2024/02/11 04:58:01;;;;;;;0.80;0.80;;;;;;;5.83;93.18;96071.50;4956834;28;20058;-93
2024/02/11 05:00:33;;;;;;;0.85;0.85;;;;;;;5.75;93.43;96070.56;4976367;28;20416;-93
2024/02/11 05:03:03;;;;;;;0.90;0.90;;;;;;;5.81;93.40;96073.25;4975451;28;20134;-93
2024/02/11 05:05:31;;;;;;;0.80;0.80;;;;;;;5.74;93.43;96072.34;4973912;28;20046;-91
2024/02/11 05:08:00;;;;;;;0.80;0.80;;;;;;;5.78;93.13;96074.13;4983158;28;20113;-93
2024/02/11 05:10:27;;;;;;;0.80;0.80;;;;;;;5.71;92.88;96072.34;4973762;28;20035;-93
2024/02/11 05:12:56;;;;;;;0.90;0.90;;;;;;;5.70;93.66;96080.25;4965701;28;20110;-94
2024/02/11 05:15:24;;;;;;;0.90;0.90;;;;;;;5.58;93.75;96075.78;4961495;28;20106;-92
2024/02/11 05:17:54;;;;;;;0.80;0.80;;;;;;;5.57;94.15;96079.31;4983960;28;20018;-92
2024/02/11 05:20:25;;;;;;;0.80;0.80;;;;;;;5.56;93.63;96077.56;4992285;28;20023;-93
2024/02/11 05:22:51;;;;;;;0.80;0.80;;;;;;;5.54;92.92;96085.44;4971724;28;20055;-92
2024/02/11 05:25:21;;;;;;;0.90;0.90;;;;;;;5.54;93.60;96092.50;5000074;28;20035;-93
2024/02/11 05:27:59;;;;;;;0.80;0.80;;;;;;;5.42;93.97;96092.44;4994155;28;20051;-92
2024/02/11 05:30:29;;;;;;;0.80;0.80;;;;;;;5.39;94.26;96093.28;4994343;28;20034;-93
2024/02/11 05:32:57;;;;;;;0.80;0.80;;;;;;;5.45;94.57;96095.09;4989070;28;20074;-92
2024/02/11 05:35:27;;;;;;;0.80;0.80;;;;;;;5.44;94.60;96102.13;4977264;28;20049;-92
2024/02/11 05:38:01;;;;;;;0.90;0.90;;;;;;;5.50;94.27;96110.09;4961632;28;20049;-93
2024/02/11 05:40:28;;;;;;;0.80;0.80;;;;;;;5.38;94.32;96103.00;4975759;28;20038;-93
2024/02/11 05:42:54;;;;;;;0.90;0.90;;;;;;;5.48;93.67;96105.69;4973487;28;20035;-93
2024/02/11 05:45:20;;;;;;;0.90;0.90;;;;;;;5.42;94.10;96109.19;4972049;28;20030;-92
2024/02/11 05:47:52;;;;;;;0.90;0.90;;;;;;;5.40;94.36;96109.16;4967412;28;20030;-93
2024/02/11 05:50:19;;;;;;;0.80;0.80;;;;;;;5.34;94.53;96109.13;4961127;28;20107;-93
2024/02/11 05:52:46;;;;;;;0.90;0.90;;;;;;;5.38;95.00;96110.91;4978420;28;20045;-93
2024/02/11 05:55:18;;;;;;;0.90;0.90;;;;;;;5.37;95.26;96124.13;4958678;28;20812;-93
2024/02/11 05:57:45;;;;;;;0.80;0.80;;;;;;;5.32;95.61;96120.59;4986307;28;20789;-93
2024/02/11 06:00:13;;;;;;;0.80;0.80;;;;;;;5.38;95.68;96123.25;4982371;28;20035;-93
2024/02/11 06:02:44;;;;;;;0.88;0.88;;;;;;;5.27;95.77;96131.13;4976707;28;20542;-93
2024/02/11 06:05:12;;;;;;;0.80;0.80;;;;;;;5.37;95.61;96130.31;4968802;28;20102;-92
2024/02/11 06:07:42;;;;;;;0.80;0.80;;;;;;;5.37;95.95;96134.72;4958420;28;20412;-94
2024/02/11 06:10:11;;;;;;;0.80;0.80;;;;;;;5.28;96.13;96132.00;4982280;28;20030;-95
2024/02/11 06:12:37;;;;;;;0.80;0.80;;;;;;;5.34;96.49;96138.22;4971315;28;20397;-95
2024/02/11 06:15:04;;;;;;;0.70;0.70;;;;;;;5.28;96.71;96138.16;4982957;28;20047;-94
2024/02/11 06:17:32;;;;;;;0.85;0.85;;;;;;;5.27;97.06;96146.06;4949399;28;20035;-95
2024/02/11 06:19:58;;;;;;;0.80;0.80;;;;;;;5.23;97.82;96142.53;4974278;28;20063;-96
2024/02/11 06:22:25;;;;;;;0.80;0.80;;;;;;;5.23;98.57;96147.81;4975923;28;20043;-96
2024/02/11 06:24:51;;;;;;;0.80;0.80;;;;;;;5.25;98.78;96140.78;4985858;28;20038;-95
2024/02/11 06:27:17;;;;;;;0.90;0.90;;;;;;;5.35;98.34;96152.31;4966632;28;20034;-95
2024/02/11 06:29:45;;;;;;;0.80;0.80;;;;;;;5.37;98.42;96151.47;4968943;28;20047;-95
2024/02/11 06:32:10;;;;;;;0.80;0.80;;;;;;;5.40;98.32;96156.75;4971353;28;20039;-94
2024/02/11 06:34:36;;;;;;;0.80;0.80;;;;;;;5.48;97.76;96167.41;4983388;28;20027;-95
2024/02/11 06:37:03;;;;;;;0.80;0.80;;;;;;;5.66;96.25;96164.88;4953795;28;20035;-95
2024/02/11 06:39:33;;;;;;;0.70;0.70;;;;;;;5.44;95.94;96172.66;4969709;28;20042;-95
2024/02/11 06:42:02;;;;;;;0.80;0.80;;;;;;;5.42;96.04;96169.13;4985523;28;20174;-94
2024/02/11 06:44:29;;;;;;;0.80;0.80;;;;;;;5.45;95.94;96164.72;4970194;28;20046;-95
2024/02/11 06:46:55;;;;;;;0.80;0.80;;;;;;;5.48;95.26;96172.69;4985921;28;20047;-95
2024/02/11 06:49:23;;;;;;;0.80;0.80;;;;;;;5.36;94.92;96184.03;4967695;28;20043;-93
2024/02/11 06:51:51;;;;;;;0.90;0.90;;;;;;;5.41;94.71;96184.06;4968271;28;20172;-93
2024/02/11 06:54:17;;;;;;;;;;;;;;;5.34;94.81;96183.16;4970236;28;20096;-93
2024/02/11 06:56:42;;;;;;;0.90;0.90;;;;;;;5.28;94.78;96182.22;4973121;28;19952;-94
2024/02/11 06:59:09;;;;;;;0.80;0.80;;;;;;;5.23;95.53;96195.41;4972004;28;20034;-93
2024/02/11 07:01:36;;;;;;;0.90;0.90;;;;;;;5.33;94.46;96197.25;4985375;28;20049;-93
2024/02/11 07:04:02;;;;;;;0.80;0.80;;;;;;;5.26;94.04;96208.63;4954355;28;20043;-92
2024/02/11 07:06:30;;;;;;;0.90;0.90;;;;;;;5.24;93.74;96207.75;4980531;28;20471;-93
2024/02/11 07:08:55;;;;;;;0.80;0.80;;;;;;;5.15;94.52;96203.25;4968009;28;20041;-93
2024/02/11 07:11:22;;;;;;;0.90;0.90;;;;;;;5.26;94.01;96219.19;4953300;28;20043;-94
2024/02/11 07:13:48;;;;;;;0.90;0.90;;;;;;;5.24;94.09;96218.31;4966928;28;20862;-94
2024/02/11 07:16:17;;;;;;;0.80;0.80;;;;;;;5.14;94.79;96224.38;4969719;28;20520;-94
2024/02/11 07:18:46;;;;;;;0.80;0.80;;;;;;;5.17;94.15;96216.47;4966250;28;20035;-95
2024/02/11 07:21:12;;;;;;;0.80;0.80;;;;;;;5.15;94.62;96227.03;4974723;28;20121;-94
2024/02/11 07:23:40;;;;;;;0.90;0.90;;;;;;;5.20;94.19;96235.00;4985249;28;20037;-94
2024/02/11 07:26:07;;;;;;;0.90;0.90;;;;;;;5.21;94.19;96228.84;4956832;28;20043;-93
2024/02/11 07:28:33;;;;;;;0.80;0.80;;;;;;;5.15;94.67;96239.38;4982792;28;20043;-94
2024/02/11 07:30:59;;;;;;;0.80;0.80;;;;;;;5.19;94.69;96241.16;4970932;28;20097;-94
2024/02/11 07:33:26;;;;;;;0.80;0.80;;;;;;;5.25;94.82;96241.22;4969786;28;20043;-95
2024/02/11 07:35:52;;;;;;;0.80;0.80;;;;;;;5.24;94.83;96242.09;4970131;28;20030;-93
2024/02/11 07:38:17;;;;;;;0.90;0.90;;;;;;;5.28;93.52;96249.19;4954053;28;20038;-94
2024/02/11 07:40:44;;;;;;;0.80;0.80;;;;;;;5.28;94.03;96251.84;4987224;28;20046;-94
2024/02/11 07:43:10;;;;;;;0.70;0.70;;;;;;;5.33;93.21;96252.75;4970556;28;20108;-94
2024/02/11 07:45:42;;;;;;;0.90;0.90;;;;;;;5.31;92.52;96246.56;4955492;28;20669;-93
2024/02/11 07:48:08;;;;;;;0.90;0.90;;;;;;;5.33;93.11;96250.13;4972976;28;20409;-94
2024/02/11 07:50:36;;;;;;;0.90;0.90;;;;;;;5.30;92.99;96260.66;4976007;28;20188;-94
2024/02/11 07:53:05;;;;;;;0.90;0.90;;;;;;;5.46;92.72;96259.06;4976144;28;20093;-94
2024/02/11 07:55:31;;;;;;;0.90;0.90;;;;;;;5.36;92.61;96260.72;4984720;28;20425;-93
2024/02/11 07:58:01;;;;;;;0.88;0.88;;;;;;;5.29;93.17;96264.19;4972470;28;20029;-94
2024/02/11 08:00:27;;;;;;;0.90;0.90;;;;;;;5.45;92.27;96265.19;4971754;28;20035;-94
2024/02/11 08:02:53;;;;;;;0.90;0.90;;;;;;;5.40;93.24;96266.91;4985099;28;20098;-93
2024/02/11 08:05:21;;;;;;;0.80;0.80;;;;;;;5.44;93.17;96279.31;4969363;28;20592;-93
2024/02/11 08:07:46;;;;;;;0.85;0.85;;;;;;;5.44;92.84;96284.59;4979768;28;20101;-94
2024/02/11 08:10:12;;;;;;;0.90;0.90;;;;;;;5.52;92.58;96285.56;4991176;28;20039;-94
2024/02/11 08:12:38;;;;;;;1.00;1.00;;;;;;;5.64;91.02;96282.13;4973785;28;20097;-94
2024/02/11 08:15:04;;;;;;;0.90;0.90;;;;;;;5.62;91.16;96278.59;4978972;28;20513;-93
2024/02/11 08:17:30;;;;;;;0.80;0.80;;;;;;;5.70;92.07;96282.19;4960353;28;20041;-94
2024/02/11 08:19:56;;;;;;;0.90;0.90;;;;;;;5.88;90.92;96271.72;4958346;28;20137;-93
2024/02/11 08:22:24;;;;;;;0.85;0.85;;;;;;;5.77;91.86;96281.34;4983033;28;20035;-93
2024/02/11 08:24:49;;;;;;;0.80;0.80;;;;;;;5.77;91.65;96283.13;5000725;28;20046;-93
2024/02/11 08:27:15;;;;;;;0.90;0.90;;;;;;;5.78;90.60;96279.59;5002395;28;20049;-94
2024/02/11 08:29:46;;;;;;;0.80;0.80;;;;;;;5.81;90.30;96284.94;4989345;28;20027;-92
2024/02/11 08:32:11;;;;;;;0.80;0.80;;;;;;;5.91;89.99;96287.69;5002086;28;20077;-92
2024/02/11 08:34:36;;;;;;;0.80;0.80;;;;;;;5.87;90.39;96287.59;4998299;28;20063;-94
2024/02/11 08:37:03;;;;;;;0.90;0.90;;;;;;;5.87;90.12;96296.44;4968351;28;20046;-93
2024/02/11 08:39:28;;;;;;;0.90;0.90;;;;;;;5.84;89.97;96296.41;5003992;28;20031;-93
2024/02/11 08:41:54;;;;;;;0.80;0.80;;;;;;;5.87;90.16;96300.84;5006925;28;20289;-92
2024/02/11 08:44:21;;;;;;;0.90;0.90;;;;;;;5.94;90.48;96300.06;5007461;28;20011;-93
2024/02/11 08:46:47;;;;;;;0.90;0.90;;;;;;;6.03;90.18;96304.53;4990742;28;20043;-93
2024/02/11 08:49:14;;;;;;;0.80;0.80;;;;;;;6.18;90.02;96312.59;4998899;28;20026;-93
2024/02/11 08:51:42;;;;;;;0.90;0.90;;;;;;;6.23;88.58;96302.00;5009485;28;20102;-94
2024/02/11 08:54:08;;;;;;;;;;;;;;;6.24;88.33;96309.09;4991463;28;20027;-94
2024/02/11 08:56:33;;;;;;;0.90;0.90;;;;;;;6.27;88.66;96312.63;4996831;28;19922;-94
2024/02/11 08:58:59;;;;;;;0.80;0.80;;;;;;;6.26;88.58;96309.97;4983842;28;20030;-94
2024/02/11 09:01:24;;;;;;;0.88;0.88;;;;;;;6.53;87.57;96317.22;4980138;28;20062;-94
2024/02/11 09:03:50;;;;;;;0.85;0.85;;;;;;;6.69;86.60;96313.78;4983576;28;20027;-95
2024/02/11 09:06:16;;;;;;;0.80;0.80;;;;;;;6.71;86.79;96313.78;4991195;28;20030;-95
2024/02/11 09:08:47;;;;;;;0.80;0.80;;;;;;;6.61;87.42;96313.75;4984438;28;20037;-93
2024/02/11 09:11:15;;;;;;;0.70;0.70;;;;;;;6.51;87.60;96317.19;4973266;28;20116;-93
2024/02/11 09:13:45;;;;;;;0.80;0.80;;;;;;;6.68;85.94;96314.66;4971747;28;20023;-93
2024/02/11 09:16:12;;;;;;;0.80;0.80;;;;;;;6.53;87.59;96314.59;4959993;28;20094;-94
2024/02/11 09:26:40;;;;;;;0.80;0.80;;;;;;;6.68;86.76;96341.16;5024201;23;20030;-92
2024/02/11 09:29:08;;;;;;;0.80;0.80;;;;;;;6.84;85.53;96337.69;4992823;28;20070;-94
2024/02/11 09:31:39;;;;;;;0.88;0.88;;;;;;;6.84;85.88;96328.88;4990328;28;20030;-94
2024/02/11 09:34:06;;;;;;;0.85;0.85;;;;;;;6.88;85.50;96331.53;4971221;28;20058;-93
2024/02/11 09:36:35;;;;;;;;;;;;;;;6.91;85.64;96334.22;4986055;28;20047;-93
2024/02/11 09:39:01;;;;;;;0.82;0.82;;;;;;;7.01;85.95;96343.09;4994854;28;19906;-92
2024/02/11 09:41:30;;;;;;;0.80;0.80;;;;;;;7.30;83.74;96337.91;4990711;28;20273;-93
2024/02/11 09:44:02;;;;;;;0.80;0.80;;;;;;;7.18;83.35;96336.06;4959762;28;20039;-93
2024/02/11 09:46:40;;;;;;;0.80;0.80;;;;;;;7.16;84.14;96337.84;4984587;28;20046;-94
2024/02/11 09:49:17;;;;;;;0.90;0.90;;;;;;;7.50;83.83;96330.00;4983039;28;20035;-94
2024/02/11 09:51:45;;;;;;;;;;;;;;;7.77;82.56;96344.22;5001163;28;20045;-93
2024/02/11 09:54:18;;;;;;;0.80;0.80;;;;;;;7.56;82.24;96340.63;4972988;28;19937;-94
2024/02/11 10:56:05;;;;;;;0.70;0.70;;;;;;;9.26;74.81;96375.09;5332934;23;20055;-92
2024/02/11 10:58:42;;;;;;;0.70;0.70;;;;;;;9.62;73.43;96375.81;4974997;28;20066;-91
2024/02/11 11:01:12;;;;;;;0.60;0.60;;;;;;;9.28;73.84;96373.28;4978136;28;20018;-94
2024/02/11 11:03:41;;;;;;;0.80;0.80;;;;;;;9.16;73.79;96374.25;4973125;28;20413;-94
2024/02/11 11:06:12;;;;;;;0.70;0.70;;;;;;;9.36;74.16;96382.13;4984874;28;20031;-95
2024/02/11 11:08:42;;;;;;;0.70;0.70;;;;;;;9.12;74.17;96376.91;4988400;28;20034;-93
2024/02/11 11:11:10;;;;;;;0.70;0.70;;;;;;;9.05;75.24;96377.81;4966571;28;20047;-93
2024/02/11 11:13:49;;;;;;;0.70;0.70;;;;;;;9.18;75.07;96382.19;4967196;28;20067;-95
2024/02/11 11:16:23;;;;;;;0.70;0.70;;;;;;;8.98;75.85;96385.81;4986906;28;20051;-93
2024/02/11 11:18:49;;;;;;;0.70;0.70;;;;;;;8.95;75.34;96401.75;4973837;28;20045;-94
2024/02/11 11:21:20;;;;;;;0.70;0.70;;;;;;;8.69;76.21;96388.53;4988595;28;20076;-92
2024/02/11 11:23:49;;;;;;;0.80;0.80;;;;;;;8.76;75.45;96381.41;4982730;28;20043;-92
2024/02/11 11:26:22;;;;;;;0.80;0.80;;;;;;;8.60;75.90;96388.53;4981754;28;20045;-93
2024/02/11 11:28:49;;;;;;;0.70;0.70;;;;;;;8.54;76.41;96385.00;4975044;28;20031;-93
2024/02/11 11:31:17;;;;;;;0.70;0.70;;;;;;;8.71;75.79;96391.16;4974184;28;20103;-93
2024/02/11 11:33:45;;;;;;;;;;;;;;;8.63;75.74;96383.22;4978865;28;21092;-92
2024/02/11 11:36:23;;;;;;;0.70;0.70;;;;;;;8.69;76.42;96384.97;4977028;28;19932;-92
2024/02/11 11:38:53;;;;;;;0.75;0.75;;;;;;;8.65;75.47;96378.78;4978949;28;20042;-92
2024/02/11 11:41:21;;;;;;;0.70;0.70;;;;;;;8.72;75.22;96387.66;4978196;28;20054;-92
2024/02/11 11:43:58;;;;;;;0.70;0.70;;;;;;;8.79;74.78;96378.75;4975091;28;20022;-93
2024/02/11 11:46:24;;;;;;;0.80;0.80;;;;;;;8.72;75.43;96380.56;4965515;28;20075;-93
2024/02/11 11:48:55;;;;;;;0.70;0.70;;;;;;;8.90;75.07;96382.28;4978423;28;20108;-94
2024/02/11 11:51:21;;;;;;;0.70;0.70;;;;;;;9.43;73.32;96370.56;4966350;28;20039;-91
2024/02/11 11:53:47;;;;;;;0.73;0.73;;;;;;;9.66;72.23;96381.09;4951335;28;20042;-94
2024/02/11 11:56:16;;;;;;;0.70;0.70;;;;;;;10.26;70.25;96372.78;4964774;28;20038;-93
2024/02/11 11:58:43;;;;;;;0.70;0.70;;;;;;;10.32;69.65;96372.72;4951607;28;20045;-94
2024/02/11 12:01:09;;;;;;;0.75;0.75;;;;;;;10.30;69.59;96370.97;4949419;28;20199;-93
2024/02/11 12:03:39;;;;;;;0.70;0.70;;;;;;;10.65;67.84;96368.00;4962855;28;20081;-93
2024/02/11 12:06:05;;;;;;;0.60;0.60;;;;;;;10.69;67.73;96359.97;4961849;28;20063;-95
2024/02/11 12:08:31;;;;;;;0.70;0.70;;;;;;;10.48;68.07;96363.69;4962206;28;20077;-92
2024/02/11 12:11:00;;;;;;;0.70;0.70;;;;;;;10.28;68.31;96355.00;4975761;28;20082;-92
2024/02/11 12:13:31;;;;;;;0.70;0.70;;;;;;;10.21;67.79;96366.56;4965205;28;20074;-93
2024/02/11 12:15:57;;;;;;;0.70;0.70;;;;;;;10.41;68.20;96361.13;4960576;28;20658;-94
2024/02/11 12:18:23;;;;;;;0.70;0.70;;;;;;;10.38;66.71;96359.34;4955682;28;20875;-92
2024/02/11 12:20:50;;;;;;;0.70;0.70;;;;;;;10.23;67.37;96363.00;4965615;28;20034;-94
2024/02/11 12:23:17;;;;;;;0.70;0.70;;;;;;;10.42;67.40;96365.53;4983188;28;20058;-93
2024/02/11 12:25:44;;;;;;;0.70;0.70;;;;;;;10.42;67.41;96361.09;4950384;28;20043;-93
2024/02/11 12:28:10;;;;;;;0.80;0.80;;;;;;;10.49;65.61;96360.16;4955780;28;20174;-93
2024/02/11 12:30:38;;;;;;;0.70;0.70;;;;;;;10.83;65.08;96361.59;4955195;28;20128;-92
2024/02/11 12:33:06;;;;;;;0.70;0.70;;;;;;;10.87;63.31;96366.88;4981764;28;20086;-91
2024/02/11 12:35:34;;;;;;;0.70;0.70;;;;;;;12.07;59.83;96355.63;4959343;28;20045;-93
2024/02/11 12:38:02;;;;;;;0.80;0.80;;;;;;;12.36;58.43;96355.22;4967863;28;20528;-92
2024/02/11 12:40:29;;;;;;;0.65;0.65;;;;;;;12.29;58.21;96359.75;4976363;28;20092;-91
2024/02/11 12:43:01;;;;;;;0.65;0.65;;;;;;;11.53;60.18;96358.13;4974089;28;20045;-91
2024/02/11 12:45:28;;;;;;;0.60;0.60;;;;;;;11.03;62.31;96371.19;4987629;28;20129;-92
2024/02/11 12:47:54;;;;;;;;;;;;;;;10.69;65.01;96369.75;4976183;28;20077;-93
2024/02/11 12:50:22;;;;;;;0.70;0.70;;;;;;;10.61;64.85;96380.47;4992523;28;19918;-95
2024/02/11 12:52:49;;;;;;;0.80;0.80;;;;;;;11.62;61.40;96371.38;4972155;28;20039;-91
2024/02/11 12:55:15;;;;;;;0.60;0.60;;;;;;;11.66;61.03;96365.09;4990250;28;20132;-92
2024/02/11 12:57:42;;;;;;;0.60;0.60;;;;;;;10.99;62.32;96377.44;4958652;28;20545;-92
2024/02/11 13:00:13;;;;;;;0.70;0.70;;;;;;;11.18;62.28;96374.59;4973259;28;20125;-94
2024/02/11 13:02:42;;;;;;;0.70;0.70;;;;;;;10.87;63.21;96369.56;4958216;28;20257;-91
2024/02/11 13:05:16;;;;;;;0.60;0.60;;;;;;;10.46;64.05;96377.97;4943236;28;20046;-91
2024/02/11 13:07:41;;;;;;;0.60;0.60;;;;;;;10.32;65.64;96377.19;4977650;28;20046;-90
2024/02/11 13:10:10;;;;;;;0.60;0.60;;;;;;;10.26;66.17;96370.13;4988457;28;20065;-91
2024/02/11 13:12:39;;;;;;;0.70;0.70;;;;;;;10.31;65.28;96373.63;4968818;28;20415;-91
2024/02/11 13:15:06;;;;;;;0.80;0.80;;;;;;;12.20;60.74;96369.69;4961533;28;20046;-92
2024/02/11 13:17:32;;;;;;;0.80;0.80;;;;;;;12.81;58.06;96355.31;4946219;28;20034;-92